Tiempo atmosférico en la estación meteorológica de Lugo Aeropuerto, Lugo (445 m.)



Fecha
DESCASC
Temp. máxima en grados centígrados (hora)
DESCASC
Temp. mínima en grados centígrados (hora)
DESCASC
Temp. media en grados centígrados
DESCASC
Racha de viento máxima en m/sg (hora)
DESCASC
Velocidad máxima media en intervalos de 10 minutos(hora)
DESCASC
Precipitaciones diarias en mm
DESCASC
Precipitaciones de 00:00 a 06:00 en mm
DESCASC
Precipitaciones de 06:00 a 12:00 en mm
DESCASC
Precipitaciones de 12:00 a 18:00 en mm
DESCASC
Precipitaciones de 18:00 a 24:00 en mm
DESCASC
13-01-2021 1.3 (16:10) -4.4 (-00:0) -1.6 1.94 (00:50) 1.11 (16:30) 0 0 0 0 0
07-01-2021 2 (16:20) -4.9 (-00:0) -1.5 2.5 (18:40) 1.39 (18:30) 0 0 0 0 0
09-01-2021 4.8 (13:10) -4.5 (-00:0) 0.2 12.5 (21:50) 6.39 (22:00) 2 0 0 1 1
06-01-2021 4.1 (17:20) -2.4 (-00:0) 0.8 2.5 (01:50) 1.39 (01:50) 0.2 0 0 0 0.2
08-01-2021 6.4 (14:40) -4.1 (-00:0) 1.2 7.5 (16:00) 4.17 (16:00) 0.2 0 0.2 0 0
05-01-2021 3.9 (17:20) -1.3 (-00:0) 1.3 2.78 (12:50) 1.94 (13:40) 0.2 0 0 0.2 0
04-01-2021 4.6 (16:50) -0.7 (-00:0) 1.9 3.89 (13:30) 1.94 (04:50) -- -- -- 0.2 0
12-01-2021 9.5 (15:40) -4.8 (-00:0) 2.3 3.61 (14:40) 1.67 (15:00) 0 0 0 0 0
14-01-2021 7.5 (17:10) -2.8 (00:00) 2.4 4.17 (06:50) 2.22 (06:30) 0.6 0 0 0 0.6
01-01-2021 4.9 (15:20) -0.2 (00:00) 2.4 8.33 (15:40) 3.06 (10:20) -- -- -- -- --
02-01-2021 5.3 (15:20) 0 (00:00) 2.7 2.78 (14:00) 1.11 (19:00) -- -- -- -- --
03-01-2021 4.8 (16:30) 0.5 (00:00) 2.7 5.83 (14:20) 3.06 (11:30) -- -- -- -- --
24-12-2020 7 (16:20) -0.9 (-00:0) 3.1 5.56 (21:30) 2.22 (21:40) 3.6 0.2 0.2 1.2 2
26-12-2020 9.5 (15:10) -3.3 (-00:0) 3.1 3.89 (15:00) 1.94 (13:50) 0 0 0 0 0
11-01-2021 8.8 (15:30) -2.1 (-00:0) 3.4 11.94 (12:50) 6.11 (12:30) 0 0 0 0 0
25-12-2020 8.4 (14:40) -1.2 (-00:0) 3.6 8.33 (16:10) 4.72 (16:10) 0.6 0.4 0.2 0 0
29-12-2020 6.1 (13:30) 1.3 (00:00) 3.7 8.33 (05:20) 3.89 (04:40) 19.8 12 3.4 3.6 0.8
27-12-2020 9.1 (19:10) -1.8 (-00:0) 3.7 18.89 (15:20) 10 (15:50) 11 0 0 0.2 10.8
30-12-2020 7.2 (17:20) 1.2 (00:00) 4.2 6.11 (22:00) 3.61 (15:20) 2 0.2 0 1 0.8
10-01-2021 6.3 (14:50) 2.2 (01:30) 4.3 12.78 (11:10) 6.11 (16:10) 0 0 0 0 0
15-01-2021 6.2 (00:10) 2.5 (00:00) 4.3 3.33 (23:30) 1.67 (10:50) 0.2 0 0.2 0 0
16-01-2021 9.5 (16:20) -0.7 (-00:0) 4.4 3.33 (00:10) 1.67 (01:40) 0 0 0 0 0
28-12-2020 6.4 (16:40) 3.1 (00:00) 4.8 13.06 (01:20) 5 (11:10) 18.2 4.2 5 5.8 3.2
17-01-2021 11.5 (15:40) -1.8 (-00:0) 4.9 3.33 (15:40) 1.94 (07:40) 0 0 0 0 0
31-12-2020 8.9 (13:50) 2.3 (00:00) 5.6 9.44 (08:00) 4.72 (08:00) 2.8 0 0 2.4 0.4
19-01-2021 11.2 (13:30) 2 (00:00) 6.6 16.94 (23:59) 6.39 (14:30) 0 0 0 0 0
23-12-2020 12.3 (02:00) 2.8 (00:00) 7.6 10.56 (00:20) 5.56 (00:10) 5.2 1.6 2.8 0.8 0
18-01-2021 15 (16:40) 2.2 (00:00) 8.6 4.72 (16:00) 2.78 (15:50) 0 0 0 0 0
20-01-2021 10.5 (16:40) 8 (00:00) 9.3 15 (15:10) 6.94 (15:10) 20.2 0.2 7.4 12.2 0.4
21-01-2021 13.1 (13:10) 7.3 (00:00) 10.2 18.61 (15:50) 10 (13:30) 20.4 0 5.6 0 14.8

Gráficas

Temp. máximas Temp. mínimas Temp. medias Precipitaciones Rachas de viento máximas Velocidades máximas media en intervalos de 10 minutos

Datos horarios

Fecha y hora oficial Temperatura (ºC) Velocidad del viento (km/h) Dirección del viento Racha (km/h) Dirección de racha Precipitación (mm) Presión (hPa) Tendencia (hPa) Humedad (%)
2021-01-21 23:00:00 7.4 10 Sudoeste 36 Sudoeste 5 950.2 -- 92
2021-01-21 22:00:00 7.8 15 Sudoeste 40 Sudoeste 2.4 951.2 -- 88
2021-01-21 21:00:00 8.8 16 Sudoeste 52 Sudoeste 0.4 951.8 -- 86
2021-01-21 20:00:00 10.3 26 Sudoeste 48 Sur 0 952.6 -- 72
2021-01-21 19:00:00 10.6 21 Sudoeste 40 Sudoeste 0 952.6 -- 72
2021-01-21 18:00:00 11.1 23 Sudoeste 59 Oeste 0 952.6 -- 68
2021-01-21 17:00:00 11.6 28 Sudoeste 54 Sudoeste 0 952.6 -- 67
2021-01-21 16:00:00 12.6 32 Sudoeste 67 Oeste 0 952.6 -- 65
2021-01-21 15:00:00 12.4 27 Sudoeste 66 Oeste 0 952 -- 68
2021-01-21 14:00:00 12.8 30 Sudoeste 62 Sudoeste 0 952.1 -- 72
2021-01-21 13:00:00 12.8 30 Oeste 55 Sudoeste 0 952.6 -- 74
2021-01-21 12:00:00 10.5 19 Sudoeste 44 Sur 0.8 952.2 -- 92
2021-01-21 11:00:00 9.5 19 Sur 46 Sur 0.8 951.5 -- 92
2021-01-21 10:00:00 9 19 Sudoeste 52 Sudoeste 2.4 952.1 -- 92
2021-01-21 09:00:00 9 17 Sudoeste 42 Sudoeste 1.6 952.7 -- 92
2021-01-21 08:00:00 9.4 21 Sudoeste 41 Sudoeste 0 952.3 -- 87
2021-01-21 07:00:00 9.4 20 Sudoeste 41 Sudoeste 0 953.2 -- 89
2021-01-21 06:00:00 8.9 15 Sudoeste 33 Sur 0 953.6 -- 91
2021-01-21 05:00:00 8.8 13 Sudoeste 30 Sudoeste 0 954.3 -- 88
2021-01-21 04:00:00 9 12 Sudoeste 31 Sudoeste 0 954.7 -- 89
2021-01-21 03:00:00 9.1 15 Sudoeste 29 Sudoeste 0 954.4 -- 91
2021-01-21 02:00:00 9.2 13 Sudoeste 24 Sudoeste 0 953.8 -- 94
2021-01-21 01:00:00 9.2 14 Sudoeste 31 Sudoeste 0 953.6 -- 89
2021-01-21 00:00:00 9.5 10 Sudoeste 30 Oeste 0 952.9 -- 92
2021-01-20 23:00:00 9.6 12 Sudoeste 30 Sudoeste 0 952.1 -- 90
2021-01-20 22:00:00 9.6 18 Sudoeste 29 Oeste 0.2 951.5 -- 91
2021-01-20 21:00:00 9.6 14 Sudoeste 31 Sudoeste 0.2 950.5 -- 92
2021-01-20 20:00:00 9.7 14 Sudoeste 29 Sudoeste 0 949.8 -- 89
2021-01-20 19:00:00 9.7 12 Sudoeste 33 Sudoeste 0 948.8 -- 90
2021-01-20 18:00:00 9.7 15 Sudoeste 31 Sudoeste 3.8 948 -- 94
2021-01-20 17:00:00 9.9 16 Sudoeste 34 Oeste 1.8 947.2 -- 92
2021-01-20 16:00:00 10 17 Sudoeste 54 Oeste 0.8 946.8 -- 91
2021-01-20 15:00:00 10.2 18 Sudoeste 38 Sudoeste 1 945.9 -- 90
2021-01-20 14:00:00 9.5 19 Sudoeste 40 Sur 1.4 946.2 -- 90
2021-01-20 13:00:00 9 14 Sudoeste 35 Sur 3.4 946.4 -- 92
2021-01-20 12:00:00 8.5 15 Sur 49 Sudoeste 4.2 946.2 -- 92
2021-01-20 11:00:00 8.4 16 Sur 44 Sudoeste 2.8 945.7 -- 89
2021-01-20 10:00:00 9.2 17 Sur 44 Sur 0 945.9 -- 79
2021-01-20 09:00:00 8 15 Sur 42 Sur 0.2 946.6 -- 78
2021-01-20 08:00:00 8.4 17 Sur 41 Sur 0 947.1 -- 74
2021-01-20 07:00:00 8.5 15 Sur 46 Sur 0.2 947.1 -- 76
2021-01-20 06:00:00 8.3 20 Sur 51 Sur 0.2 948.3 -- 76
2021-01-20 05:00:00 8.3 16 Sur 52 Sudoeste 0 949 -- 77
2021-01-20 04:00:00 8.8 20 Sur 48 Sur 0 949.9 -- 73
2021-01-20 03:00:00 8.8 16 Sur 48 Sur 0 950.9 -- 73
2021-01-20 02:00:00 9.1 18 Sudoeste 48 Sur 0 952 -- 65
2021-01-20 01:00:00 8.9 18 Sur 49 Sur 0 953.5 -- 63
2021-01-20 00:00:00 9.1 20 Sur 61 Sudoeste 0 954.9 -- 61
2021-01-19 23:00:00 9.1 19 Sur 45 Sur 0 955.4 -- 59
2021-01-19 22:00:00 9.3 19 Sur 49 Sur 0 956.1 -- 59
2021-01-19 21:00:00 9.3 17 Sur 45 Sudoeste 0 958.1 -- 55
2021-01-19 20:00:00 9.5 16 Sudoeste 41 Sudoeste 0 958.7 -- 53
2021-01-19 19:00:00 9.8 10 Sur 34 Sudoeste 0 959.4 -- 54
2021-01-19 18:00:00 10.1 15 Sudoeste 40 Sur 0 959.8 -- 55
2021-01-19 17:00:00 10 15 Sudoeste 41 Sur 0 960.7 -- 56
2021-01-19 16:00:00 10.3 17 Sudoeste 39 Sur 0 961 -- 56
2021-01-19 15:00:00 10.7 18 Sur 46 Sudoeste 0 962.4 -- 51
2021-01-19 14:00:00 10.9 18 Sudoeste 46 Sudoeste 0 963.5 -- 45
2021-01-19 13:00:00 10.5 17 Sudoeste 35 Sudoeste 0 964.8 -- 46
2021-01-19 12:00:00 9.6 14 Sudoeste 27 Sudoeste 0 965.3 -- 47
2021-01-19 11:00:00 7.9 10 Sudoeste 31 Sudoeste 0 965.7 -- 53
2021-01-19 10:00:00 7.1 10 Sudoeste 29 Sur 0 965.8 -- 58
2021-01-19 09:00:00 6.2 11 Sur 28 Sur 0 966.2 -- 63
2021-01-19 08:00:00 5.7 5 Sur 18 Sudoeste 0 966.5 -- 66
2021-01-19 07:00:00 6.8 12 Sudoeste 26 Sur 0 966.9 -- 64
2021-01-19 06:00:00 5.3 7 Sudoeste 23 Sur 0 967.4 -- 74
2021-01-19 05:00:00 2.8 3 Sur 12 Sur 0 968.5 -- 84
2021-01-19 04:00:00 4.1 5 Sur 17 Sudoeste 0 969.1 -- 84
2021-01-19 03:00:00 3.7 4 Sudoeste 13 Sudoeste 0 969.4 -- 89
2021-01-19 02:00:00 2.4 5 Sur 10 Sur 0 970.2 -- 94
2021-01-19 01:00:00 2.8 4 Sudoeste 10 Sur 0 970.7 -- 90
2021-01-19 00:00:00 2.2 2 Sudoeste 7 Sudoeste 0 971.3 -- 93
2021-01-18 23:00:00 2.7 3 Sudeste 5 Sudeste 0 971.3 -- 91
2021-01-18 22:00:00 3.2 3 Sur 5 Sur 0 971.7 -- 90
2021-01-18 21:00:00 4.3 2 Sur 5 Sur 0 971.7 -- 87
2021-01-18 20:00:00 6 0 Calma 6 Sudeste 0 971.8 -- 82
2021-01-18 19:00:00 8.8 4 Sudeste 6 Sudeste 0 971.8 -- 73
2021-01-18 18:00:00 13.6 4 Sudeste 13 Sudoeste 0 971.7 -- 59
2021-01-18 17:00:00 15 6 Sudoeste 14 Sudoeste 0 971.9 -- 54
2021-01-18 16:00:00 14.5 8 Sudoeste 17 Sudoeste 0 972.2 -- 54
2021-01-18 15:00:00 13.5 5 Sudoeste 14 Oeste 0 972.8 -- 64
2021-01-18 14:00:00 11 3 Nordeste 9 Nordeste 0 973.7 -- 73
2021-01-18 13:00:00 8.9 4 Noroeste 6 Norte 0 974.6 -- 80
2021-01-18 12:00:00 5.5 3 Sudoeste 9 Oeste 0 975.4 -- 92
2021-01-18 11:00:00 4.8 3 Oeste 9 Sudoeste 0 975.3 -- 95
2021-01-18 10:00:00 4.9 7 Sudoeste 10 Sudoeste 0 975.3 -- 97
2021-01-18 09:00:00 5.4 4 Sudoeste 5 Sudoeste 0 975 -- 95
2021-01-18 08:00:00 5.6 2 Nordeste 7 Este 0 975.2 -- 96
2021-01-18 07:00:00 5.8 5 Este 10 Este 0 975 -- 94
2021-01-18 06:00:00 6.7 7 Este 13 Este 0 975.1 -- 95
2021-01-18 05:00:00 6.4 4 Sudoeste 6 Sudoeste 0 975.3 -- 92
2021-01-18 04:00:00 7.1 0 Calma 3 Sudoeste 0 975.9 -- 93
2021-01-18 03:00:00 7.4 2 Sur 5 Este 0 975.9 -- 91
2021-01-18 02:00:00 8.2 0 Calma 4 Este 0 976.2 -- 93
2021-01-18 01:00:00 8.3 2 Nordeste 8 Nordeste 0 976.7 -- 94
2021-01-18 00:00:00 8.5 0 Calma 3 Noroeste 0 976.8 -- 92
2021-01-17 23:00:00 8.8 3 Sudeste 5 Sudeste 0 977.1 -- 92
2021-01-17 22:00:00 9 2 Oeste 5 Noroeste 0 977.2 -- 91
2021-01-17 21:00:00 9.2 2 Sudeste 5 Sudeste 0 977.5 -- 91
2021-01-17 20:00:00 9.5 2 Sudeste 3 Sudeste 0 977.6 -- 89
2021-01-17 19:00:00 9.9 2 Nordeste 3 Este 0 977.6 -- 88
2021-01-17 18:00:00 10.6 0 Calma 10 Noroeste 0 977.4 -- 85
2021-01-17 17:00:00 10.6 3 Norte 8 Noroeste 0 977.3 -- 84
2021-01-17 16:00:00 11.1 4 Oeste 12 Sudoeste 0 977.2 -- 81
2021-01-17 15:00:00 10.9 2 Oeste 8 Norte 0 977.4 -- 83
2021-01-17 14:00:00 9.5 4 Norte 11 Sudoeste 0 977.9 -- 90
2021-01-17 13:00:00 6.6 3 Noroeste 5 Nordeste 0 978.9 -- 97
2021-01-17 12:00:00 4.8 2 Oeste 9 Noroeste 0 979.4 -- 98
2021-01-17 11:00:00 3 2 Nordeste 7 Noroeste 0 978.9 -- 99
2021-01-17 10:00:00 1.7 0 Calma 4 Norte 0 978.5 -- 98
2021-01-17 09:00:00 0.8 0 Calma 9 Sudeste 0 978.2 -- 98
2021-01-17 08:00:00 -0.1 4 Sudeste 11 Sur 0 977.9 -- 97
2021-01-17 07:00:00 -1.7 5 Sudeste 10 Sudeste 0 977.5 -- 94
2021-01-17 06:00:00 -1.4 3 Sudeste 6 Este 0 977.6 -- 95
2021-01-17 05:00:00 -1.4 5 Sudeste 8 Sudeste 0 977.6 -- 95
2021-01-17 04:00:00 -1.7 2 Noroeste 6 Noroeste 0 977.5 -- 93
2021-01-17 03:00:00 -1.2 3 Sudeste 7 Sudeste 0 977.3 -- 94
2021-01-17 02:00:00 -1.1 2 Sudoeste 6 Sudeste 0 977.8 -- 91
2021-01-17 01:00:00 -0.7 2 Sudeste 6 Sur 0 978 -- 94
2021-01-17 00:00:00 -0.1 0 Calma 9 Sudeste 0 978.1 -- 91
2021-01-16 23:00:00 0 3 Sudeste 6 Sur 0 978.2 -- 90
2021-01-16 22:00:00 0.5 5 Sudeste 9 Sudeste 0 978 -- 91
2021-01-16 21:00:00 1.4 4 Sur 8 Sudeste 0 977.9 -- 89
2021-01-16 20:00:00 2.9 4 Sur 7 Sudeste 0 977.7 -- 88
2021-01-16 19:00:00 5.2 3 Sudeste 5 Sudeste 0 977.5 -- 80
2021-01-16 18:00:00 8.3 2 Noroeste 8 Norte 0 977 -- 76
2021-01-16 17:00:00 9.4 3 Norte 9 Norte 0 976.7 -- 71
2021-01-16 16:00:00 9.2 3 Noroeste 8 Noroeste 0 976.7 -- 70
2021-01-16 15:00:00 7.4 5 Noroeste 12 Noroeste 0 976.9 -- 74
2021-01-16 14:00:00 7 4 Noroeste 9 Noroeste 0 977.3 -- 75
2021-01-16 13:00:00 5.1 4 Norte 9 Noroeste 0 977.8 -- 81
2021-01-16 12:00:00 2.3 4 Noroeste 8 Oeste 0 978.4 -- 92
2021-01-16 11:00:00 -0.3 4 Sudoeste 8 Este 0 978.3 -- 97
2021-01-16 10:00:00 -0.5 3 Sur 6 Sur 0 978 -- 97
2021-01-16 09:00:00 -0.3 4 Sur 7 Sur 0 977.5 -- 97
2021-01-16 08:00:00 -0.2 0 Calma 5 Nordeste 0 977.4 -- 97
2021-01-16 07:00:00 -0.2 0 Calma 6 Sur 0 977 -- 94
2021-01-16 06:00:00 0.6 2 Sudoeste 9 Sudoeste 0 977.3 -- 94
2021-01-16 05:00:00 1.6 3 Sudoeste 9 Sudoeste 0 977.6 -- 95
2021-01-16 04:00:00 2.2 0 Calma 7 Sudeste 0 977.6 -- 94
2021-01-16 03:00:00 2.5 3 Sur 8 Sur 0 977.5 -- 94
2021-01-16 02:00:00 2.8 3 Oeste 9 Oeste 0 977.8 -- 95
2021-01-16 01:00:00 3.1 2 Sur 12 Sur 0 978 -- 95
2021-01-16 00:00:00 3.2 5 Sudoeste 12 Sur 0 977.6 -- 94
2021-01-15 23:00:00 4 5 Sudoeste 9 Oeste 0 977.8 -- 95
2021-01-15 22:00:00 4.6 2 Noroeste 5 Oeste 0 977.7 -- 95
2021-01-15 21:00:00 4.8 0 Calma 6 Noroeste 0 977.5 -- 95
2021-01-15 20:00:00 4.5 3 Noroeste 5 Noroeste 0 977.6 -- 96
2021-01-15 19:00:00 4.8 2 Oeste 4 Oeste 0 977.3 -- 93
2021-01-15 18:00:00 5.5 0 Calma 5 Nordeste 0 977.3 -- 92
2021-01-15 17:00:00 5.9 3 Noroeste 6 Este 0 977.2 -- 91
2021-01-15 16:00:00 5.9 3 Nordeste 7 Norte 0 977.3 -- 91
2021-01-15 15:00:00 5.6 4 Noroeste 8 Oeste 0 977.4 -- 92
2021-01-15 14:00:00 4.7 3 Oeste 8 Este 0 978 -- 95
2021-01-15 13:00:00 3.7 4 Sudeste 9 Oeste 0 979.1 -- 97
2021-01-15 12:00:00 3.1 3 Sur 9 Sur 0 979.4 -- 98
2021-01-15 11:00:00 2.7 5 Sudoeste 10 Sudoeste 0 978.8 -- 97
2021-01-15 10:00:00 2.7 3 Sudeste 10 Sudeste 0 978.5 -- 97
2021-01-15 09:00:00 3.3 4 Sudoeste 9 Sudoeste 0 977.6 -- 97
2021-01-15 08:00:00 3.6 3 Sudeste 7 Sur 0.2 977.8 -- 98
2021-01-15 07:00:00 3.2 4 Sudeste 8 Sudeste 0 977.7 -- 97
2021-01-15 06:00:00 3.8 3 Sur 9 Sudoeste 0 977.5 -- 96
2021-01-15 05:00:00 4.7 5 Sudoeste 8 Sudoeste 0 977.6 -- 96
2021-01-15 04:00:00 5.6 2 Sudeste 4 Sur 0 977.8 -- 96
2021-01-15 03:00:00 5.9 0 Calma 5 Sudoeste 0 978 -- 97
2021-01-15 02:00:00 6.2 0 Calma 3 Este 0 978.2 -- 96
2021-01-15 01:00:00 6.1 2 Sudoeste 5 Noroeste 0 978.2 -- 96
2021-01-15 00:00:00 6.1 0 Calma 5 Sudoeste 0.2 978.2 -- 95
2021-01-14 23:00:00 6.4 0 Calma 3 Noroeste 0 978.1 -- 95
2021-01-14 22:00:00 6.3 0 Calma 3 Nordeste 0.4 977.8 -- 95
2021-01-14 21:00:00 6.6 0 Calma 5 Sudoeste 0 977.7 -- 94
2021-01-14 20:00:00 6.9 3 Sudoeste 5 Sudoeste 0 977.7 -- 89
2021-01-14 19:00:00 7.2 0 Calma 3 Oeste 0 977.6 -- 90
2021-01-14 18:00:00 7.5 0 Calma 4 Noroeste 0 977.7 -- 88
2021-01-14 17:00:00 7.4 3 Nordeste 6 Noroeste 0 977.7 -- 88
2021-01-14 16:00:00 7 2 Norte 5 Norte 0 977.5 -- 88
2021-01-14 15:00:00 6 2 Sudeste 5 Este 0 977.9 -- 92
2021-01-14 14:00:00 5.3 3 Norte 5 Norte 0 978.4 -- 94
2021-01-14 13:00:00 4 2 Noroeste 5 Este 0 978.9 -- 96
2021-01-14 12:00:00 3.5 2 Nordeste 5 Nordeste 0 979.1 -- 97
2021-01-14 11:00:00 3.1 2 Norte 4 Nordeste 0 978.7 -- 96
2021-01-14 10:00:00 2.2 2 Noroeste 6 Noroeste 0 978.5 -- 95
2021-01-14 09:00:00 1.7 0 Calma 9 Sur 0 978.3 -- 93
2021-01-14 08:00:00 2.3 3 Noroeste 9 Sur 0 978.3 -- 94
2021-01-14 07:00:00 2.6 4 Sur 15 Sur 0 978 -- 94
2021-01-14 06:00:00 1.3 4 Sudeste 8 Sur 0 978.3 -- 98
2021-01-14 05:00:00 0 3 Sudeste 5 Sur 0 978.3 -- 97
2021-01-14 04:00:00 -0.2 0 Calma 5 Sudeste 0 978.6 -- 96
2021-01-14 03:00:00 -0.9 0 Calma 4 Este 0 978.4 -- 95
2021-01-14 02:00:00 -1.4 0 Calma 6 Noroeste 0 978.7 -- 94
2021-01-14 01:00:00 -1.7 2 Sudeste 5 Sudeste 0 979 -- 95
2021-01-14 00:00:00 -2.8 0 Calma 4 Este 0 979.2 -- 95
2021-01-13 23:00:00 -3.3 0 Calma 3 Noroeste 0 979.1 -- 91
2021-01-13 22:00:00 -2.9 2 Sudeste 3 Noroeste 0 978.8 -- 91
2021-01-13 21:00:00 -2.4 0 Calma 6 Sur 0 978.7 -- 95
2021-01-13 20:00:00 -1.8 2 Sudoeste 5 Noroeste 0 978.6 -- 95
2021-01-13 19:00:00 -0.6 0 Calma 4 Sudeste 0 978.1 -- 94
2021-01-13 18:00:00 0.5 2 Oeste 3 Oeste 0 978 -- 94
2021-01-13 17:00:00 1 0 Calma 6 Noroeste 0 977.8 -- 94
2021-01-13 16:00:00 1.1 3 Oeste 5 Oeste 0 977.8 -- 94
2021-01-13 15:00:00 0.4 3 Norte 6 Norte 0 977.9 -- 95
2021-01-13 14:00:00 0 3 Nordeste 6 Nordeste 0 978.3 -- 95
2021-01-13 13:00:00 -1.7 2 Noroeste 5 Noroeste 0 979.2 -- 96
2021-01-13 12:00:00 -2.8 3 Este 5 Este 0 979.8 -- 95
2021-01-13 11:00:00 -3.9 0 Calma 4 Nordeste 0 979.7 -- 95
2021-01-13 10:00:00 -4.3 0 Calma 3 Sudeste 0 979.3 -- 93
2021-01-13 09:00:00 -4.1 0 Calma 4 Sur 0 979.1 -- 93
2021-01-13 08:00:00 -3.8 3 Sudoeste 5 Oeste 0 978.9 -- 94
2021-01-13 07:00:00 -3.5 0 Calma 3 Noroeste 0 978.7 -- 93
2021-01-13 06:00:00 -3 0 Calma 4 Sudeste 0 978.3 -- 92
2021-01-13 05:00:00 -2.8 2 Sudeste 4 Sudoeste 0 978.7 -- 96
2021-01-13 04:00:00 -4 2 Oeste 3 Noroeste 0 978.7 -- 91
2021-01-13 03:00:00 -3.7 0 Calma 5 Sudeste 0 978 -- 89
2021-01-13 02:00:00 -3.3 3 Sudeste 5 Sur 0 978.2 -- 90
2021-01-13 01:00:00 -2.9 3 Sur 7 Sur 0 978.7 -- 90
2021-01-13 00:00:00 -2.5 3 Sudeste 5 Sudeste 0 978.9 -- 90
2021-01-12 23:00:00 -2 2 Sudeste 6 Sur 0 978.9 -- 89
2021-01-12 22:00:00 -1.4 3 Sur 6 Sudeste 0 978.6 -- 86
2021-01-12 21:00:00 -0.7 3 Sudoeste 7 Sudeste 0 978.5 -- 88
2021-01-12 20:00:00 0.3 4 Sur 9 Sudeste 0 978.3 -- 84
2021-01-12 19:00:00 2.7 4 Sudeste 8 Sudeste 0 978.1 -- 75
2021-01-12 18:00:00 7.6 0 Calma 7 Noroeste 0 978.1 -- 60
2021-01-12 17:00:00 8.8 4 Norte 8 Noroeste 0 977.5 -- 56
2021-01-12 16:00:00 9.4 3 Norte 9 Noroeste 0 977.2 -- 55
2021-01-12 15:00:00 9.3 6 Sudoeste 13 Sudoeste 0 977 -- 49
2021-01-12 14:00:00 7.3 2 Este 8 Noroeste 0 977.5 -- 63
2021-01-12 13:00:00 4.3 3 Noroeste 6 Norte 0 978.3 -- 76
2021-01-12 12:00:00 1.6 2 Noroeste 6 Norte 0 978.9 -- 83
2021-01-12 11:00:00 -0.7 3 Nordeste 5 Nordeste 0 978.2 -- 87
2021-01-12 10:00:00 -4.1 2 Sur 5 Sur 0 977.6 -- 92
2021-01-12 09:00:00 -4.7 3 Sudeste 5 Sudeste 0 976.9 -- 90
2021-01-12 08:00:00 -4.7 2 Sur 3 Sur 0 976.8 -- 89
2021-01-12 07:00:00 -4.5 2 Sudeste 6 Sudeste 0 976.1 -- 90
2021-01-12 06:00:00 -4.1 3 Sudeste 5 Sudeste 0 975.9 -- 89
2021-01-12 05:00:00 -3.7 2 Sudoeste 7 Sudeste 0 976.2 -- 91
2021-01-12 04:00:00 -3.6 3 Sur 6 Sudeste 0 976.3 -- 90
2021-01-12 03:00:00 -3.2 3 Este 8 Sur 0 975.9 -- 92
2021-01-12 02:00:00 -2.8 3 Sudoeste 7 Este 0 975.8 -- 91
2021-01-12 01:00:00 -2.4 5 Sudeste 8 Sudeste 0 975.7 -- 91
2021-01-12 00:00:00 -2 2 Sudeste 7 Este 0 975.8 -- 91
2021-01-11 23:00:00 -1.5 3 Sur 9 Sudeste 0 975.3 -- 89
2021-01-11 22:00:00 -0.9 3 Sudeste 5 Sur 0 974.8 -- 87
2021-01-11 21:00:00 0 0 Calma 6 Este 0 974.6 -- 83
2021-01-11 20:00:00 1.7 3 Sudeste 12 Este 0 974.2 -- 77
2021-01-11 19:00:00 3.6 6 Este 10 Nordeste 0 974.2 -- 73
2021-01-11 18:00:00 6 5 Nordeste 18 Este 0 973.9 -- 64
2021-01-11 17:00:00 7.8 11 Este 22 Este 0 973.5 -- 54
2021-01-11 16:00:00 8.5 11 Nordeste 24 Nordeste 0 973.1 -- 51
2021-01-11 15:00:00 8.4 12 Nordeste 38 Este 0 972.8 -- 50
2021-01-11 14:00:00 7.9 18 Nordeste 36 Este 0 972.9 -- 49
2021-01-11 13:00:00 7.3 17 Este 43 Este 0 973.6 -- 51
2021-01-11 12:00:00 6.9 16 Nordeste 31 Este 0 973.9 -- 54
2021-01-11 11:00:00 5 8 Nordeste 19 Nordeste 0 973.5 -- 66
2021-01-11 10:00:00 1.7 9 Nordeste 13 Nordeste 0 973 -- 83
2021-01-11 09:00:00 0.2 3 Este 8 Noroeste 0 972.3 -- 87
2021-01-11 08:00:00 0.9 2 Este 10 Norte 0 971.7 -- 85
2021-01-11 07:00:00 1.5 3 Nordeste 9 Noroeste 0 971.5 -- 82
2021-01-11 06:00:00 0.9 3 Nordeste 10 Norte 0 971.4 -- 86
2021-01-11 05:00:00 1.5 4 Nordeste 12 Norte 0 971.5 -- 81
2021-01-11 04:00:00 1.4 4 Norte 13 Norte 0 971.4 -- 85
2021-01-11 03:00:00 1.4 4 Oeste 10 Norte 0 971.1 -- 84
2021-01-11 02:00:00 2.4 3 Noroeste 23 Nordeste 0 971.1 -- 78
2021-01-11 01:00:00 3.2 13 Nordeste 27 Este 0 971.3 -- 73
2021-01-11 00:00:00 2.7 4 Nordeste 29 Nordeste 0 971.1 -- 71
2021-01-10 23:00:00 3.1 16 Nordeste 35 Este 0 970.5 -- 71
2021-01-10 22:00:00 2.9 13 Nordeste 27 Este 0 970.3 -- 69
2021-01-10 21:00:00 2.6 10 Nordeste 25 Nordeste 0 969.8 -- 77
2021-01-10 20:00:00 2.5 8 Nordeste 23 Nordeste 0 969.4 -- 77
2021-01-10 19:00:00 2.9 6 Norte 29 Este 0 968.9 -- 72
2021-01-10 18:00:00 4.3 5 Nordeste 36 Nordeste 0 968.2 -- 68
2021-01-10 17:00:00 5.4 13 Nordeste 44 Este 0 967.5 -- 61
2021-01-10 16:00:00 5 17 Nordeste 46 Nordeste 0 967.1 -- 67
2021-01-10 15:00:00 6.3 12 Nordeste 32 Nordeste 0 966.7 -- 68
2021-01-10 14:00:00 5.7 13 Nordeste 45 Nordeste 0 966.9 -- 69
2021-01-10 13:00:00 5.8 20 Nordeste 40 Nordeste 0 966.6 -- 69
2021-01-10 12:00:00 5.4 18 Nordeste 46 Nordeste 0 966.7 -- 73
2021-01-10 11:00:00 4.7 15 Nordeste 38 Nordeste 0 966 -- 73
2021-01-10 10:00:00 3.1 13 Nordeste 29 Nordeste 0 964.9 -- 83
2021-01-10 09:00:00 2.9 10 Nordeste 28 Nordeste 0 964.1 -- 84
2021-01-10 08:00:00 3.1 6 Nordeste 30 Nordeste 0 963.5 -- 81
2021-01-10 07:00:00 3.7 10 Nordeste 32 Nordeste 0 962.9 -- 81
2021-01-10 06:00:00 3.5 12 Nordeste 35 Nordeste 0 962.5 -- 81
2021-01-10 05:00:00 3.2 10 Nordeste 38 Nordeste 0 962.3 -- 86
2021-01-10 04:00:00 3 13 Nordeste 35 Nordeste 0 962.1 -- 88
2021-01-10 03:00:00 2.9 17 Nordeste 34 Nordeste 0 961.7 -- 89
2021-01-10 02:00:00 2.5 9 Nordeste 29 Nordeste 0 961.4 -- 91
2021-01-10 01:00:00 2.4 15 Nordeste 41 Nordeste 0 960.9 -- 89
2021-01-10 00:00:00 2.5 14 Nordeste 36 Este 0 960.6 -- 91
2021-01-09 23:00:00 2.4 18 Nordeste 43 Nordeste 0.2 960.3 -- 90
2021-01-09 22:00:00 2.4 23 Nordeste 45 Este 0 959.7 -- 89
2021-01-09 21:00:00 2 19 Nordeste 42 Nordeste 0.2 959.4 -- 90
2021-01-09 20:00:00 1.9 14 Nordeste 32 Nordeste 0.2 959 -- 90
2021-01-09 19:00:00 1.4 10 Nordeste 29 Este 0.4 958.8 -- 95
2021-01-09 18:00:00 0.8 6 Nordeste 24 Este 0.8 958.5 -- 95
2021-01-09 17:00:00 1.8 6 Nordeste 35 Nordeste 0.2 958.2 -- 91
2021-01-09 16:00:00 2.6 18 Nordeste 41 Nordeste 0 957.9 -- 87
2021-01-09 15:00:00 3.3 11 Nordeste 29 Nordeste 0 957.8 -- 81
2021-01-09 14:00:00 3.5 10 Nordeste 36 Nordeste 0 957.8 -- 79
2021-01-09 13:00:00 4.5 16 Nordeste 32 Nordeste 0 958.3 -- 67
2021-01-09 12:00:00 2.2 11 Nordeste 30 Nordeste 0 959.1 -- 88
2021-01-09 11:00:00 1.5 8 Nordeste 23 Nordeste 0 959.2 -- 85
2021-01-09 10:00:00 0.2 5 Nordeste 22 Nordeste 0 958.6 -- 91
2021-01-09 09:00:00 -1.5 4 Norte 14 Nordeste 0 958.3 -- 93
2021-01-09 08:00:00 -3.1 2 Nordeste 6 Nordeste 0 958.1 -- 89
2021-01-09 07:00:00 -3.2 2 Oeste 6 Este 0 958 -- 88
2021-01-09 06:00:00 -3.1 2 Norte 12 Nordeste 0 958 -- 90
2021-01-09 05:00:00 -4 2 Noroeste 6 Norte 0 958.1 -- 91
2021-01-09 04:00:00 -4.3 2 Oeste 5 Sudoeste 0 958.3 -- 90
2021-01-09 03:00:00 -3.8 3 Sudoeste 4 Oeste 0 958.3 -- 89
2021-01-09 02:00:00 -3 3 Oeste 9 Noroeste 0 958.4 -- 89
2021-01-09 01:00:00 -2.7 3 Oeste 9 Noroeste 0 958.8 -- 90
2021-01-09 00:00:00 -1.9 2 Noroeste 7 Noroeste 0 959.3 -- 89
2021-01-08 23:00:00 -1.4 3 Noroeste 8 Noroeste 0 959.6 -- 90
2021-01-08 22:00:00 -0.6 2 Norte 13 Este 0 959.6 -- 87
2021-01-08 21:00:00 0.6 6 Nordeste 17 Nordeste 0 959.8 -- 87
2021-01-08 20:00:00 0.7 5 Nordeste 20 Nordeste 0 959.8 -- 86
2021-01-08 19:00:00 1.3 3 Norte 17 Este 0 959.6 -- 84
2021-01-08 18:00:00 3.1 5 Nordeste 21 Este 0 959.9 -- 74
2021-01-08 17:00:00 4.9 6 Nordeste 23 Nordeste 0 960 -- 66
2021-01-08 16:00:00 5.4 15 Nordeste 27 Este 0 959.9 -- 61
2021-01-08 15:00:00 6 8 Nordeste 23 Nordeste 0 960.2 -- 61
2021-01-08 14:00:00 5.7 9 Nordeste 19 Nordeste 0 960.9 -- 66
2021-01-08 13:00:00 3.8 4 Oeste 9 Oeste 0 962 -- 80
2021-01-08 12:00:00 1.4 3 Oeste 5 Oeste 0.2 962.9 -- 88
2021-01-08 11:00:00 -1 5 Oeste 9 Oeste 0 963.1 -- 93
2021-01-08 10:00:00 -3.6 0 Calma 6 Oeste 0 962.9 -- 96
2021-01-08 09:00:00 -4 2 Sudoeste 5 Sudoeste 0 962.4 -- 96
2021-01-08 08:00:00 -3.8 4 Oeste 8 Sudoeste 0 961.9 -- 96
2021-01-08 07:00:00 -3.4 0 Calma 4 Sudoeste 0 961.7 -- 96
2021-01-08 06:00:00 -3.4 0 Calma 3 Sur 0 962.3 -- 94
2021-01-08 05:00:00 -3 0 Calma 3 Este 0 962.5 -- 95
2021-01-08 04:00:00 -2.8 2 Sudoeste 4 Sur 0 962.8 -- 94
2021-01-08 03:00:00 -2.1 0 Calma 4 Oeste 0 962.8 -- 96
2021-01-08 02:00:00 -1.7 2 Noroeste 5 Sudeste 0 962.9 -- 95
2021-01-08 01:00:00 -1.1 2 Sudeste 4 Este 0 963.1 -- 96
2021-01-08 00:00:00 -0.7 2 Sudeste 5 Este 0 963.3 -- 96
2021-01-07 23:00:00 0 2 Sudeste 5 Este 0 963.1 -- 97
2021-01-07 22:00:00 0 3 Sur 4 Este 0 963 -- 97
2021-01-07 21:00:00 0.2 2 Este 5 Nordeste 0 963.1 -- 97
2021-01-07 20:00:00 0.5 3 Este 7 Nordeste 0 962.6 -- 97
2021-01-07 19:00:00 0.8 5 Este 9 Este 0 962.5 -- 96
2021-01-07 18:00:00 1.4 3 Norte 8 Noroeste 0 962.6 -- 95
2021-01-07 17:00:00 1.8 3 Este 8 Norte 0 962.2 -- 93
2021-01-07 16:00:00 1.8 3 Norte 8 Noroeste 0 961.9 -- 94
2021-01-07 15:00:00 1.5 2 Oeste 5 Sudoeste 0 961.8 -- 93
2021-01-07 14:00:00 0.8 2 Norte 6 Noroeste 0 962.1 -- 94
2021-01-07 13:00:00 0 3 Noroeste 8 Norte 0 962.6 -- 95
2021-01-07 12:00:00 -1 2 Sudeste 5 Sur 0 963 -- 93
2021-01-07 11:00:00 -2.2 0 Calma 7 Sudoeste 0 963 -- 94
2021-01-07 10:00:00 -3.2 2 Sudeste 5 Nordeste 0 962.7 -- 93
2021-01-07 09:00:00 -3.6 2 Oeste 6 Sur 0 962.1 -- 94
2021-01-07 08:00:00 -4.3 0 Calma 5 Sudoeste 0 961.8 -- 94
2021-01-07 07:00:00 -4.7 0 Calma 8 Sudoeste 0 961.4 -- 91
2021-01-07 06:00:00 -4.6 0 Calma 3 Noroeste 0 961.1 -- 92
2021-01-07 05:00:00 -4 2 Sur 4 Sudoeste 0 961.2 -- 92
2021-01-07 04:00:00 -3.5 0 Calma 5 Sur 0 961.5 -- 94
2021-01-07 03:00:00 -3.7 0 Calma 5 Noroeste 0 961.5 -- 94
2021-01-07 02:00:00 -3 0 Calma 5 Sur 0 961.6 -- 93
2021-01-07 01:00:00 -2.5 2 Sudeste 6 Sur 0 961.8 -- 95
2021-01-07 00:00:00 -2.3 2 Sur 4 Oeste 0.2 962.1 -- 95
2021-01-06 23:00:00 -1.8 0 Calma 5 Sur 0 962.2 -- 92
2021-01-06 22:00:00 -1.3 0 Calma 5 Sur 0 962.3 -- 93
2021-01-06 21:00:00 -0.8 2 Sur 6 Sudeste 0 962.5 -- 92
2021-01-06 20:00:00 -0.2 3 Sudeste 7 Sur 0 962.4 -- 91
2021-01-06 19:00:00 0.9 3 Sudeste 5 Sudeste 0 962.1 -- 90
2021-01-06 18:00:00 3.4 2 Sudeste 5 Este 0 961.7 -- 87
2021-01-06 17:00:00 3.7 4 Sudeste 5 Sur 0 961.7 -- 91
2021-01-06 16:00:00 2.5 2 Sur 6 Este 0 961.7 -- 95
2021-01-06 15:00:00 1.8 2 Nordeste 6 Norte 0 961.8 -- 96
2021-01-06 14:00:00 1.1 3 Nordeste 7 Nordeste 0 962.1 -- 97
2021-01-06 13:00:00 0.5 2 Sudoeste 6 Sudoeste 0 962.7 -- 97
2021-01-06 12:00:00 -0.4 5 Sudoeste 7 Sudoeste 0 963.4 -- 96
2021-01-06 11:00:00 -0.2 3 Noroeste 6 Noroeste 0 963.4 -- 93
2021-01-06 10:00:00 -1.6 2 Noroeste 5 Noroeste 0 962.8 -- 96
2021-01-06 09:00:00 -2.1 2 Sudoeste 5 Sudoeste 0 962.4 -- 96
2021-01-06 08:00:00 -1.9 3 Sudoeste 6 Sudoeste 0 962.1 -- 97
2021-01-06 07:00:00 -1.9 3 Sudoeste 5 Oeste 0 961.5 -- 96
2021-01-06 06:00:00 -1.7 2 Este 6 Sudoeste 0 961.2 -- 96
2021-01-06 05:00:00 -1 2 Sudoeste 4 Oeste 0 961.2 -- 96
2021-01-06 04:00:00 -1 3 Sudeste 6 Sur 0 961 -- 96
2021-01-06 03:00:00 -0.6 3 Norte 8 Este 0 961.1 -- 97
2021-01-06 02:00:00 -0.1 4 Este 9 Nordeste 0 961.1 -- 97
2021-01-06 01:00:00 -0.3 2 Sudeste 6 Sudeste 0 961.2 -- 95
2021-01-06 00:00:00 0.4 0 Calma 4 Nordeste 0 961.1 -- 93
2021-01-05 23:00:00 1.5 0 Calma 5 Nordeste 0 960.9 -- 95
2021-01-05 22:00:00 2.1 3 Este 5 Nordeste 0 960.9 -- 95
2021-01-05 21:00:00 2.4 0 Calma 5 Este 0 960.8 -- 95
2021-01-05 20:00:00 2.7 2 Nordeste 5 Este 0 960.5 -- 94
2021-01-05 19:00:00 3.4 0 Calma 4 Nordeste 0 960.3 -- 93
2021-01-05 18:00:00 3.6 0 Calma 7 Noroeste 0 960 -- 91
2021-01-05 17:00:00 3.7 3 Oeste 7 Oeste 0 959.9 -- 90
2021-01-05 16:00:00 3.5 2 Sudeste 6 Sudeste 0 959.7 -- 90
2021-01-05 15:00:00 3.3 4 Sur 7 Sudoeste 0 959.9 -- 90
2021-01-05 14:00:00 2.6 4 Sur 9 Oeste 0.2 960.3 -- 92
2021-01-05 13:00:00 2.3 3 Sur 10 Sudoeste 0 961 -- 92
2021-01-05 12:00:00 1.4 2 Nordeste 6 Sur 0 961.6 -- 97
2021-01-05 11:00:00 0.5 0 Calma 3 Norte 0 961.5 -- 97
2021-01-05 10:00:00 0.1 3 Este 5 Sudoeste 0 961.2 -- 96
2021-01-05 09:00:00 -0.2 2 Sudeste 4 Sudoeste 0 960.9 -- 96
2021-01-05 08:00:00 -0.4 3 Oeste 4 Este 0 960.9 -- 97
2021-01-05 07:00:00 -0.5 3 Sudoeste 4 Sudoeste 0 960.8 -- 96
2021-01-05 06:00:00 -0.7 3 Norte 5 Sudoeste 0 961 -- 95
2021-01-05 05:00:00 -0.4 0 Calma 6 Nordeste 0 961.2 -- 97
2021-01-05 04:00:00 -0.5 3 Oeste 5 Sudoeste 0 961.3 -- 97
2021-01-05 03:00:00 -0.7 0 Calma 4 Nordeste 0 961.5 -- 96
2021-01-05 02:00:00 -1.2 2 Sudoeste 4 Sur 0 961.4 -- 93
2021-01-05 01:00:00 -0.5 0 Calma 5 Sur 0 961.5 -- 94
2021-01-05 00:00:00 -0.3 2 Sudeste 5 Sudeste 0 961.6 -- 96
2021-01-04 23:00:00 -0.6 3 Sur 6 Sudeste 0 961.6 -- 93
2021-01-04 22:00:00 0.3 2 Oeste 8 Sudeste 0 961.5 -- 95
2021-01-04 21:00:00 0.3 2 Sudoeste 5 Sur 0 961.3 -- 96
2021-01-04 20:00:00 0.5 6 Sudeste 8 Sudeste 0 961.2 -- 94
2021-01-04 19:00:00 1.3 3 Sur 7 Sudeste 0 961.2 -- 89
2021-01-04 18:00:00 3.3 0 Calma 8 Noroeste 0 960.7 -- 86
2021-01-04 17:00:00 4.4 4 Nordeste 8 Nordeste 0 960.5 -- 81
2021-01-04 16:00:00 3.6 3 Noroeste 11 Noroeste 0 960.5 -- 90
2021-01-04 15:00:00 3.9 4 Norte 8 Este 0.2 960.4 -- 88
2021-01-04 14:00:00 2.4 4 Nordeste 14 Noroeste 0 960.6 -- 91
2021-01-04 13:00:00 3.1 4 Noroeste 10 Norte 0 961.3 -- 92
2021-01-04 12:00:00 2.6 5 Oeste 9 Sudoeste 0 961.5 -- 94
2021-01-04 11:00:00 2 3 Oeste 6 Sudoeste 0 961.3 -- 94
2021-01-04 10:00:00 1.1 2 Sudoeste 7 Oeste 0 961 -- 96
2021-01-04 09:00:00 0.8 0 Calma 10 Sudoeste 0 960.8 -- 96
2021-01-04 08:00:00 0.8 5 Sudoeste 10 Sudoeste 0 960.6 -- 96
2021-01-04 07:00:00 0.4 0 Calma 10 Sudoeste 0 960.7 -- 96
2021-01-04 06:00:00 0.8 4 Sudoeste 8 Oeste 0 960.6 -- 97
2021-01-04 05:00:00 0.6 6 Sudoeste 12 Sudoeste 0 961 -- 96
2021-01-04 04:00:00 1.1 0 Calma 4 Sudoeste 0 961.5 -- 97
2021-01-04 03:00:00 1 0 Calma 7 Sudoeste 0 961.5 -- 97
2021-01-04 02:00:00 0.6 5 Oeste 9 Oeste 0 961.8 -- 97
2021-01-04 01:00:00 0.4 3 Sudeste 9 Sudoeste 0 962 -- 97
2021-01-04 00:00:00 0.6 0 Calma 5 Sur 0 962.3 -- 96
2021-01-03 23:00:00 0.7 3 Sudeste 6 Sudeste 0 962.6 -- 95
2021-01-03 22:00:00 1.3 2 Sudoeste 8 Sudeste 0 962.7 -- 94
2021-01-03 21:00:00 1.7 2 Sudeste 6 Sudoeste 0 963 -- 92
2021-01-03 20:00:00 2.3 3 Sudeste 5 Sur 0 963.1 -- 95
2021-01-03 19:00:00 2.6 3 Norte 5 Norte 0 962.8 -- 94
2021-01-03 18:00:00 3 2 Sudeste 19 Noroeste 0 962.7 -- 92
2021-01-03 17:00:00 4.5 5 Noroeste 12 Noroeste 0 962.8 -- 92
2021-01-03 16:00:00 4.7 5 Oeste 13 Oeste 0 962.9 -- 93
2021-01-03 15:00:00 4.1 5 Noroeste 21 Noroeste 0 963.1 -- 96
2021-01-03 14:00:00 4 6 Noroeste 17 Sudoeste 0 963.7 -- 93
2021-01-03 13:00:00 4.5 9 Sudoeste 17 Sudoeste 0 964.4 -- 90
2021-01-03 12:00:00 4 7 Sudoeste 19 Sudoeste 0 965.1 -- 92
2021-01-03 11:00:00 3.2 5 Sur 11 Sur 0 965.3 -- 94
2021-01-03 10:00:00 2.4 6 Sudoeste 11 Sudoeste 0 965.4 -- 96
2021-01-03 09:00:00 2.4 0 Calma 10 Sudoeste 0 965.4 -- 95
2021-01-03 08:00:00 2.3 5 Sudoeste 8 Sudoeste 0 965 -- 96
2021-01-03 07:00:00 2.4 4 Oeste 8 Sudoeste 0 965.3 -- 96
2021-01-03 06:00:00 2.5 5 Oeste 7 Oeste 0 965.5 -- 96
2021-01-03 05:00:00 2.5 3 Oeste 5 Oeste 0 966 -- 96
2021-01-03 04:00:00 2.1 3 Sur 5 Sur 0 966.2 -- 97
2021-01-03 03:00:00 1.8 0 Calma 4 Sudoeste 0 966.4 -- 96
2021-01-03 02:00:00 1.4 0 Calma 4 Sur 0 966.8 -- 96
2021-01-03 01:00:00 1.3 3 Sudeste 5 Sudeste 0 967.2 -- 96
2021-01-03 00:00:00 1.2 2 Sudeste 7 Sudoeste 0 967.6 -- 95
2021-01-02 23:00:00 1.3 2 Sur 5 Sur 0 967.4 -- 92
2021-01-02 22:00:00 2.1 0 Calma 4 Sudoeste 0.2 967.5 -- 94
2021-01-02 21:00:00 3 0 Calma 4 Sudoeste 0 967.3 -- 94
2021-01-02 20:00:00 3.1 2 Sudeste 5 Sudoeste 0 967.2 -- 94
2021-01-02 19:00:00 3.1 4 Sudoeste 6 Sudoeste 0 967 -- 92
2021-01-02 18:00:00 4.4 3 Oeste 6 Oeste 0 966.7 -- 87
2021-01-02 17:00:00 5 2 Norte 8 Norte 0 966.3 -- 88
2021-01-02 16:00:00 5 2 Noroeste 8 Este 0 966 -- 88
2021-01-02 15:00:00 4.6 3 Este 6 Norte 0.4 965.8 -- 89
2021-01-02 14:00:00 4.3 3 Oeste 10 Oeste 0 966 -- 91